Time;durP1;ratioP1;P1;durP2;ratioP2;P2;SDS_P1;SDS_P2;PMS_P1;PMS_P2;Temp;Humidity;BMP_temperature;BMP_pressure;BME280_temperature;BME280_humidity;BME280_pressure;Samples;Min_cycle;Max_cycle;Signal;HPM_P1;HPM_P2
2023/12/09 00:02:20;;;;;;;0.88;0.88;;;;;;;5.21;97.15;98353.66;5013351;28;20555;-78
2023/12/09 00:04:45;;;;;;;0.70;0.70;;;;;;;5.20;97.21;98357.13;5014749;28;20407;-77
2023/12/09 00:07:11;;;;;;;0.80;0.80;;;;;;;5.19;97.06;98360.63;5014975;28;20036;-77
2023/12/09 00:09:39;;;;;;;0.70;0.70;;;;;;;5.17;97.33;98363.19;5020039;28;20033;-77
2023/12/09 00:12:05;;;;;;;0.80;0.80;;;;;;;5.20;97.47;98367.72;5011014;28;20068;-77
2023/12/09 00:14:30;;;;;;;0.80;0.80;;;;;;;5.21;97.55;98359.84;5016217;28;20038;-77
2023/12/09 00:16:56;;;;;;;0.80;0.80;;;;;;;5.24;97.78;98359.97;5013660;28;20054;-77
2023/12/09 00:19:21;;;;;;;0.70;0.70;;;;;;;5.34;97.49;98367.47;5013196;28;20084;-77
2023/12/09 00:21:47;;;;;;;0.80;0.80;;;;;;;5.36;97.72;98370.19;5012936;28;20387;-77
2023/12/09 00:24:12;;;;;;;0.70;0.70;;;;;;;5.35;97.47;98371.03;5014480;28;20072;-77
2023/12/09 00:26:38;;;;;;;0.80;0.80;;;;;;;5.37;97.09;98364.06;5013314;28;20048;-77
2023/12/09 00:29:03;;;;;;;0.70;0.70;;;;;;;5.33;97.16;98363.03;5011159;28;20055;-77
2023/12/09 00:31:31;;;;;;;0.70;0.70;;;;;;;5.37;97.21;98372.91;5011709;28;20156;-77
2023/12/09 00:33:56;;;;;;;0.75;0.75;;;;;;;5.36;97.18;98368.44;5017064;28;20088;-77
2023/12/09 00:36:22;;;;;;;0.80;0.80;;;;;;;5.32;97.26;98365.63;5007996;28;20045;-78
2023/12/09 00:38:47;;;;;;;0.80;0.80;;;;;;;5.43;97.09;98368.72;5017731;28;20038;-77
2023/12/09 00:41:13;;;;;;;0.70;0.70;;;;;;;5.41;97.18;98366.00;5009418;28;20616;-77
2023/12/09 00:43:38;;;;;;;0.70;0.70;;;;;;;5.35;97.12;98368.38;5011649;28;20145;-77
2023/12/09 00:46:04;;;;;;;0.77;0.77;;;;;;;5.36;97.07;98365.78;5014117;28;20533;-77
2023/12/09 00:48:29;;;;;;;0.80;0.80;;;;;;;5.46;97.19;98367.13;5012807;28;20041;-77
2023/12/09 00:50:55;;;;;;;0.80;0.80;;;;;;;5.47;97.21;98361.00;5013963;28;20038;-77
2023/12/09 00:53:20;;;;;;;0.70;0.70;;;;;;;5.35;97.34;98358.69;5010231;28;20147;-77
2023/12/09 00:55:45;;;;;;;0.80;0.80;;;;;;;5.35;97.24;98361.34;5013621;28;20048;-76
2023/12/09 00:58:11;;;;;;;0.70;0.70;;;;;;;5.32;97.10;98357.69;5010934;28;20048;-77
2023/12/09 01:00:36;;;;;;;0.80;0.80;;;;;;;5.29;97.15;98352.25;5011552;28;20038;-76
2023/12/09 01:03:02;;;;;;;0.80;0.80;;;;;;;5.23;97.70;98358.19;5008598;28;20041;-76
2023/12/09 01:05:27;;;;;;;0.80;0.80;;;;;;;5.22;97.48;98361.66;5011359;28;20054;-76
2023/12/09 01:07:53;;;;;;;0.82;0.82;;;;;;;5.24;98.00;98367.91;5010370;28;20045;-76
2023/12/09 01:10:18;;;;;;;0.80;0.80;;;;;;;5.25;97.75;98369.72;5012050;28;20053;-76
2023/12/09 01:12:43;;;;;;;0.80;0.80;;;;;;;5.28;97.78;98366.31;5012881;28;20080;-76
2023/12/09 01:15:09;;;;;;;0.80;0.80;;;;;;;5.37;97.74;98372.00;5011929;28;20076;-76
2023/12/09 01:17:34;;;;;;;0.80;0.80;;;;;;;5.36;97.79;98375.47;5011135;28;20699;-78
2023/12/09 01:20:00;;;;;;;0.80;0.80;;;;;;;5.41;97.79;98379.22;5011652;28;20074;-78
2023/12/09 01:22:25;;;;;;;0.80;0.80;;;;;;;5.40;97.55;98380.97;5009556;28;20080;-78
2023/12/09 01:24:51;;;;;;;0.80;0.80;;;;;;;5.37;97.94;98388.78;5011201;28;20232;-78
2023/12/09 01:27:16;;;;;;;0.80;0.80;;;;;;;5.39;97.75;98381.81;5010162;28;20120;-78
2023/12/09 01:29:41;;;;;;;0.80;0.80;;;;;;;5.49;97.77;98388.41;5010615;28;20426;-78
2023/12/09 01:32:09;;;;;;;0.80;0.80;;;;;;;5.34;97.50;98390.38;5010856;28;20063;-78
2023/12/09 01:34:38;;;;;;;0.70;0.70;;;;;;;5.32;97.45;98394.72;5014739;28;20107;-78
2023/12/09 01:37:03;;;;;;;0.80;0.80;;;;;;;5.40;97.73;98398.56;5008614;28;20041;-78
2023/12/09 01:39:29;;;;;;;0.80;0.80;;;;;;;5.46;97.44;98400.59;5012720;28;20486;-79
2023/12/09 01:41:56;;;;;;;0.80;0.80;;;;;;;5.40;97.81;98403.88;5012150;28;20041;-78
2023/12/09 01:44:21;;;;;;;0.80;0.80;;;;;;;5.42;97.28;98404.84;5012575;28;20642;-78
2023/12/09 01:46:47;;;;;;;0.80;0.80;;;;;;;5.43;97.58;98414.59;5016047;28;20034;-78
2023/12/09 01:49:13;;;;;;;0.80;0.80;;;;;;;5.44;97.24;98415.50;5009763;28;20045;-78
2023/12/09 01:51:41;;;;;;;0.80;0.80;;;;;;;5.47;97.30;98419.19;5015455;28;20099;-78
2023/12/09 01:54:08;;;;;;;0.70;0.70;;;;;;;5.49;97.29;98416.59;5012260;28;20287;-78
2023/12/09 01:56:33;;;;;;;0.80;0.80;;;;;;;5.40;97.06;98411.81;5015934;28;20038;-78
2023/12/09 01:58:58;;;;;;;0.80;0.80;;;;;;;5.45;97.12;98418.19;5016408;28;21055;-77
2023/12/09 02:01:25;;;;;;;0.70;0.70;;;;;;;5.38;97.22;98414.41;5013915;28;20116;-77
2023/12/09 02:03:51;;;;;;;0.80;0.80;;;;;;;5.33;97.14;98428.25;5013097;28;20046;-77
2023/12/09 02:06:17;;;;;;;0.80;0.80;;;;;;;5.28;97.47;98421.88;5014501;28;20132;-77
2023/12/09 02:08:42;;;;;;;0.75;0.75;;;;;;;5.29;97.62;98415.72;5015441;28;20394;-77
2023/12/09 02:11:28;;;;;;;0.80;0.80;;;;;;;5.29;97.39;98423.66;5017521;28;20040;-76
2023/12/09 02:14:29;;;;;;;0.80;0.80;;;;;;;5.27;97.33;98428.91;5013109;28;20037;-76
2023/12/09 02:17:10;;;;;;;0.75;0.75;;;;;;;5.32;97.52;98426.47;4954683;28;20053;-77
2023/12/09 02:19:36;;;;;;;0.80;0.80;;;;;;;5.29;97.26;98431.59;5016692;28;20395;-77
2023/12/09 02:22:05;;;;;;;0.80;0.80;;;;;;;5.28;97.56;98429.78;5014235;28;20041;-77
2023/12/09 02:24:30;;;;;;;0.70;0.70;;;;;;;5.28;97.39;98424.50;5029513;28;20050;-77
2023/12/09 02:27:10;;;;;;;0.70;0.70;;;;;;;5.27;97.78;98430.59;5017575;28;20037;-77
2023/12/09 02:29:48;;;;;;;0.80;0.80;;;;;;;5.29;97.60;98424.56;5014324;28;20401;-77
2023/12/09 02:32:17;;;;;;;0.80;0.80;;;;;;;5.28;97.29;98419.22;5014261;28;20454;-77
2023/12/09 02:34:43;;;;;;;0.80;0.80;;;;;;;5.17;97.32;98421.34;5015733;28;20045;-78
2023/12/09 02:37:11;;;;;;;0.80;0.80;;;;;;;5.24;97.18;98414.63;5014810;28;20041;-76
2023/12/09 02:39:37;;;;;;;0.70;0.70;;;;;;;5.24;97.25;98412.88;5018353;28;20772;-77
2023/12/09 02:42:04;;;;;;;0.80;0.80;;;;;;;5.28;97.33;98403.34;5011205;28;20038;-76
2023/12/09 02:44:30;;;;;;;0.70;0.70;;;;;;;5.28;97.16;98398.06;5015518;28;20042;-77
2023/12/09 02:46:56;;;;;;;0.70;0.70;;;;;;;5.34;97.16;98398.31;5013153;28;20041;-77
2023/12/09 02:49:25;;;;;;;0.82;0.82;;;;;;;5.34;96.69;98399.22;5017734;28;20045;-78
2023/12/09 02:51:50;;;;;;;0.82;0.82;;;;;;;5.33;96.49;98396.53;5018737;28;20045;-78
2023/12/09 02:54:16;;;;;;;0.80;0.80;;;;;;;5.24;96.55;98383.78;5011336;28;20046;-78
2023/12/09 02:56:41;;;;;;;0.80;0.80;;;;;;;5.20;96.64;98389.78;5017198;28;20048;-78
2023/12/09 02:59:07;;;;;;;0.77;0.77;;;;;;;5.23;96.56;98389.91;5015547;28;20045;-78
2023/12/09 03:01:33;;;;;;;0.80;0.80;;;;;;;5.29;96.79;98391.91;5012173;28;20124;-77
2023/12/09 03:03:59;;;;;;;0.80;0.80;;;;;;;5.27;96.79;98391.88;5012867;28;20037;-76
2023/12/09 03:06:24;;;;;;;0.80;0.80;;;;;;;5.38;96.52;98387.94;5014035;28;20044;-78
2023/12/09 03:08:50;;;;;;;0.80;0.80;;;;;;;5.35;96.04;98387.78;5015164;28;20029;-78
2023/12/09 03:11:15;;;;;;;0.80;0.80;;;;;;;5.35;95.93;98378.97;5014018;28;20041;-78
2023/12/09 03:13:40;;;;;;;0.80;0.80;;;;;;;5.30;95.75;98377.84;5013471;28;20033;-79
2023/12/09 03:16:06;;;;;;;0.80;0.80;;;;;;;5.23;95.88;98379.34;5015140;28;20126;-78
2023/12/09 03:18:32;;;;;;;0.70;0.70;;;;;;;5.36;96.28;98378.13;5016292;28;20044;-76
2023/12/09 03:20:57;;;;;;;0.80;0.80;;;;;;;5.34;96.23;98371.88;5013027;28;20049;-76
2023/12/09 03:23:22;;;;;;;0.80;0.80;;;;;;;5.34;95.92;98369.22;5013437;28;20367;-77
2023/12/09 03:25:48;;;;;;;0.80;0.80;;;;;;;5.38;96.13;98363.22;5016580;28;20160;-76
2023/12/09 03:28:14;;;;;;;0.88;0.88;;;;;;;5.21;96.16;98359.84;5011249;28;20046;-76
2023/12/09 03:30:39;;;;;;;0.70;0.70;;;;;;;5.13;96.99;98356.88;5011976;28;20041;-78
2023/12/09 03:33:05;;;;;;;0.80;0.80;;;;;;;5.13;97.34;98355.97;5011270;28;20034;-75
2023/12/09 03:35:30;;;;;;;0.80;0.80;;;;;;;5.18;97.07;98359.72;5016348;28;20042;-77
2023/12/09 03:37:55;;;;;;;0.90;0.90;;;;;;;5.15;96.64;98363.13;5027077;28;20643;-77
2023/12/09 03:40:21;;;;;;;0.80;0.80;;;;;;;5.15;97.28;98354.28;5012603;28;20034;-76
2023/12/09 03:42:46;;;;;;;0.80;0.80;;;;;;;5.09;97.01;98349.63;5017670;28;20091;-77
2023/12/09 03:45:12;;;;;;;0.80;0.80;;;;;;;5.08;97.55;98362.81;5013950;28;20111;-77
2023/12/09 03:47:37;;;;;;;0.80;0.80;;;;;;;5.10;97.04;98359.38;5012215;28;20037;-77
2023/12/09 03:50:03;;;;;;;0.80;0.80;;;;;;;5.13;97.14;98351.59;5010584;28;20141;-77
2023/12/09 03:52:28;;;;;;;0.80;0.80;;;;;;;5.11;97.02;98349.69;5011324;28;20502;-77
2023/12/09 03:54:54;;;;;;;0.70;0.70;;;;;;;5.11;96.94;98350.59;5013376;28;20041;-77
2023/12/09 03:57:19;;;;;;;0.80;0.80;;;;;;;5.17;97.11;98354.34;5013353;28;20060;-77
2023/12/09 03:59:45;;;;;;;0.80;0.80;;;;;;;5.07;96.94;98348.66;5009228;28;20037;-77
2023/12/09 04:02:10;;;;;;;0.80;0.80;;;;;;;5.04;97.32;98352.91;5009783;28;20045;-77
2023/12/09 04:04:39;;;;;;;0.80;0.80;;;;;;;5.02;97.88;98346.63;5013157;28;20360;-77
2023/12/09 04:07:06;;;;;;;0.70;0.70;;;;;;;4.91;97.81;98345.28;5010984;28;20037;-77
2023/12/09 04:09:31;;;;;;;0.80;0.80;;;;;;;4.70;97.96;98345.22;5011819;28;20034;-78
2023/12/09 04:11:57;;;;;;;0.80;0.80;;;;;;;4.48;98.14;98353.88;5010242;28;20376;-78
2023/12/09 04:14:22;;;;;;;0.80;0.80;;;;;;;4.35;98.01;98349.75;5012207;28;20075;-78
2023/12/09 04:16:47;;;;;;;0.90;0.90;;;;;;;4.30;97.55;98351.25;5013384;28;20099;-78
2023/12/09 04:19:13;;;;;;;0.80;0.80;;;;;;;4.22;97.76;98348.28;5010466;28;20088;-78
2023/12/09 04:21:38;;;;;;;0.80;0.80;;;;;;;4.27;97.69;98338.84;5010662;28;20065;-78
2023/12/09 04:24:04;;;;;;;0.90;0.90;;;;;;;4.35;98.10;98342.72;5011539;28;20386;-78
2023/12/09 04:26:30;;;;;;;0.90;0.90;;;;;;;4.24;98.04;98338.69;5011502;28;20378;-78
2023/12/09 04:28:55;;;;;;;0.90;0.90;;;;;;;4.16;97.70;98339.13;5011216;28;20077;-78
2023/12/09 04:31:21;;;;;;;0.80;0.80;;;;;;;3.98;97.84;98339.19;5015286;28;20033;-78
2023/12/09 04:33:46;;;;;;;0.90;0.90;;;;;;;3.77;97.03;98345.19;5009288;28;20349;-78
2023/12/09 04:36:12;;;;;;;0.80;0.80;;;;;;;3.71;97.58;98339.63;5009669;28;20410;-78
2023/12/09 04:38:38;;;;;;;0.90;0.90;;;;;;;3.81;97.66;98352.44;5010020;28;20561;-78
2023/12/09 04:41:04;;;;;;;0.90;0.90;;;;;;;4.00;98.22;98366.53;5015675;28;21220;-78
2023/12/09 04:43:29;;;;;;;0.93;0.93;;;;;;;4.06;98.14;98362.44;5018550;28;20042;-78
2023/12/09 04:45:54;;;;;;;1.00;1.00;;;;;;;3.91;97.96;98364.34;5011167;28;20042;-78
2023/12/09 04:48:20;;;;;;;0.90;0.90;;;;;;;3.64;98.30;98376.16;5014494;28;20443;-78
2023/12/09 04:50:45;;;;;;;0.90;0.90;;;;;;;3.44;98.53;98383.06;5011851;28;20049;-78
2023/12/09 04:53:11;;;;;;;0.90;0.90;;;;;;;3.76;98.55;98382.97;5010485;28;20080;-76
2023/12/09 04:55:37;;;;;;;0.90;0.90;;;;;;;3.94;98.91;98380.34;5007435;28;20030;-78
2023/12/09 04:58:03;;;;;;;0.90;0.90;;;;;;;4.01;99.49;98381.53;5015337;28;20408;-78
2023/12/09 05:00:28;;;;;;;0.80;0.80;;;;;;;4.04;99.34;98385.25;5012028;28;20108;-79
2023/12/09 05:02:53;;;;;;;0.90;0.90;;;;;;;4.09;99.46;98367.91;5009780;28;20049;-76
2023/12/09 05:05:19;;;;;;;0.90;0.90;;;;;;;4.16;99.55;98374.38;5006445;28;20168;-76
2023/12/09 05:07:44;;;;;;;0.80;0.80;;;;;;;4.05;99.52;98372.94;4995092;28;20499;-77
2023/12/09 05:10:12;;;;;;;0.80;0.80;;;;;;;4.03;99.63;98371.97;5008855;28;20860;-77
2023/12/09 05:12:38;;;;;;;;;;;;;;;4.03;99.41;98366.72;5025462;28;20431;-77
2023/12/09 05:15:04;;;;;;;0.98;0.98;;;;;;;4.02;99.19;98371.03;5010443;28;19974;-77
2023/12/09 05:17:29;;;;;;;0.90;0.90;;;;;;;4.07;99.02;98360.72;5009251;28;20171;-77
2023/12/09 05:19:54;;;;;;;0.90;0.90;;;;;;;4.15;99.31;98361.09;5012534;28;20816;-77
2023/12/09 05:22:21;;;;;;;0.90;0.90;;;;;;;4.22;99.33;98350.03;5010037;28;20052;-76
2023/12/09 05:24:47;;;;;;;0.90;0.90;;;;;;;4.23;99.46;98350.06;5009832;28;20829;-78
2023/12/09 05:27:13;;;;;;;0.85;0.85;;;;;;;4.29;99.53;98358.28;5003173;28;20583;-77
2023/12/09 05:29:39;;;;;;;0.90;0.90;;;;;;;4.28;99.33;98340.63;5012741;28;20683;-78
2023/12/09 05:32:05;;;;;;;0.80;0.80;;;;;;;4.32;99.27;98332.03;5010500;28;20045;-77
2023/12/09 05:34:31;;;;;;;0.90;0.90;;;;;;;4.28;99.08;98338.00;5011714;28;20026;-78
2023/12/09 05:36:56;;;;;;;0.90;0.90;;;;;;;4.23;99.08;98347.44;5015375;28;20407;-78
2023/12/09 05:39:22;;;;;;;0.90;0.90;;;;;;;4.41;98.83;98344.78;5006884;28;20041;-77
2023/12/09 05:41:47;;;;;;;0.90;0.90;;;;;;;4.33;98.93;98347.03;5015360;28;20042;-77
2023/12/09 05:44:12;;;;;;;0.80;0.80;;;;;;;4.36;98.77;98343.66;5025088;28;20547;-77
2023/12/09 05:46:40;;;;;;;0.90;0.90;;;;;;;4.29;99.01;98337.16;5007284;28;20128;-78
2023/12/09 05:49:05;;;;;;;0.90;0.90;;;;;;;4.32;99.00;98334.66;5010435;28;20038;-77
2023/12/09 05:51:31;;;;;;;0.90;0.90;;;;;;;4.37;98.51;98332.25;5016024;28;20056;-78
2023/12/09 05:53:57;;;;;;;0.90;0.90;;;;;;;4.34;98.59;98333.00;5008994;28;20068;-78
2023/12/09 05:56:22;;;;;;;0.90;0.90;;;;;;;4.36;98.65;98333.09;5010124;28;20601;-78
2023/12/09 05:58:48;;;;;;;0.80;0.80;;;;;;;4.31;98.50;98330.22;5011339;28;20072;-78
2023/12/09 06:01:13;;;;;;;0.90;0.90;;;;;;;4.34;98.65;98332.09;5008148;28;20042;-78
2023/12/09 06:03:38;;;;;;;0.80;0.80;;;;;;;4.37;98.90;98325.22;5011447;28;20407;-78
2023/12/09 06:06:04;;;;;;;0.80;0.80;;;;;;;4.37;98.63;98327.88;5007841;28;20045;-78
2023/12/09 06:08:30;;;;;;;0.80;0.80;;;;;;;4.43;98.69;98327.25;5010885;28;20096;-78
2023/12/09 06:10:57;;;;;;;0.90;0.90;;;;;;;4.45;98.52;98319.38;5008747;28;20033;-77
2023/12/09 06:13:23;;;;;;;0.70;0.70;;;;;;;4.41;98.72;98330.63;5008856;28;20707;-77
2023/12/09 06:15:48;;;;;;;0.80;0.80;;;;;;;4.43;98.65;98324.59;5015753;28;20045;-76
2023/12/09 06:18:13;;;;;;;0.90;0.90;;;;;;;4.41;98.63;98330.63;5012059;28;20149;-76
2023/12/09 06:20:39;;;;;;;0.88;0.88;;;;;;;4.42;98.41;98320.16;5023820;28;20120;-77
2023/12/09 06:23:04;;;;;;;0.85;0.85;;;;;;;4.43;98.55;98315.78;5015853;28;20092;-77
2023/12/09 06:25:30;;;;;;;0.80;0.80;;;;;;;4.42;98.61;98320.16;5015844;28;20069;-78
2023/12/09 06:27:55;;;;;;;0.88;0.88;;;;;;;4.40;98.52;98324.44;5010859;28;20033;-79
2023/12/09 06:30:21;;;;;;;0.90;0.90;;;;;;;4.38;98.35;98324.38;5009374;28;20038;-78
2023/12/09 06:32:46;;;;;;;0.80;0.80;;;;;;;4.36;98.29;98318.16;5009041;28;20042;-78
2023/12/09 06:35:11;;;;;;;0.80;0.80;;;;;;;4.37;98.70;98314.66;5012951;28;20077;-78
2023/12/09 06:37:37;;;;;;;0.80;0.80;;;;;;;4.53;98.71;98299.50;5011524;28;20076;-78
2023/12/09 06:40:03;;;;;;;0.80;0.80;;;;;;;4.71;98.10;98295.06;5012724;28;20057;-77
2023/12/09 06:42:30;;;;;;;0.90;0.90;;;;;;;4.79;96.82;98300.66;5013133;28;20107;-77
2023/12/09 06:44:56;;;;;;;0.90;0.90;;;;;;;4.65;96.91;98292.16;5014160;28;20037;-77
2023/12/09 06:47:21;;;;;;;0.90;0.90;;;;;;;4.76;96.85;98287.34;5010724;28;20068;-79
2023/12/09 06:49:47;;;;;;;0.90;0.90;;;;;;;4.67;97.08;98295.75;5010684;28;20903;-78
2023/12/09 06:52:12;;;;;;;0.90;0.90;;;;;;;4.63;97.23;98289.44;5015148;28;20038;-78
2023/12/09 06:54:38;;;;;;;0.80;0.80;;;;;;;4.69;97.29;98291.44;5014762;28;20042;-79
2023/12/09 06:57:04;;;;;;;0.80;0.80;;;;;;;4.64;97.23;98295.59;5012032;28;20045;-79
2023/12/09 06:59:29;;;;;;;0.93;0.93;;;;;;;4.61;97.33;98295.50;5012366;28;20761;-79
2023/12/09 07:01:58;;;;;;;0.90;0.90;;;;;;;4.67;97.61;98298.41;5017116;28;20121;-78
2023/12/09 07:04:23;;;;;;;0.82;0.82;;;;;;;4.73;97.25;98296.03;5011081;28;20175;-78
2023/12/09 07:06:49;;;;;;;0.90;0.90;;;;;;;4.63;97.45;98286.78;5012040;28;20033;-78
2023/12/09 07:09:14;;;;;;;0.80;0.80;;;;;;;4.71;97.56;98291.53;5009828;28;20065;-78
2023/12/09 07:11:40;;;;;;;0.90;0.90;;;;;;;4.75;97.37;98283.81;5012089;28;20125;-78
2023/12/09 07:14:05;;;;;;;0.80;0.80;;;;;;;4.74;97.35;98276.69;5010273;28;20038;-78
2023/12/09 07:16:31;;;;;;;0.73;0.73;;;;;;;4.69;97.26;98280.84;5011686;28;20117;-78
2023/12/09 07:18:59;;;;;;;0.90;0.90;;;;;;;4.79;96.84;98288.41;5012746;28;20091;-78
2023/12/09 07:21:29;;;;;;;0.88;0.88;;;;;;;4.72;97.05;98283.66;5013510;28;20038;-78
2023/12/09 07:23:58;;;;;;;0.80;0.80;;;;;;;4.85;96.86;98300.97;5011771;28;20048;-78
2023/12/09 07:26:23;;;;;;;0.80;0.80;;;;;;;4.85;96.85;98298.31;5012337;28;20034;-78
2023/12/09 07:28:48;;;;;;;0.80;0.80;;;;;;;4.93;96.54;98298.66;5016157;28;20045;-78
2023/12/09 07:31:17;;;;;;;0.90;0.90;;;;;;;4.86;96.72;98298.38;5002519;28;20063;-78
2023/12/09 07:33:43;;;;;;;0.90;0.90;;;;;;;4.88;96.72;98301.97;5013720;28;20045;-78
2023/12/09 07:36:08;;;;;;;0.90;0.90;;;;;;;4.95;96.58;98307.56;5012937;28;20042;-78
2023/12/09 07:38:34;;;;;;;0.80;0.80;;;;;;;5.00;96.48;98309.56;5012879;28;20057;-78
2023/12/09 07:40:59;;;;;;;0.90;0.90;;;;;;;5.08;96.79;98305.53;5011696;28;20084;-78
2023/12/09 07:43:25;;;;;;;0.90;0.90;;;;;;;5.21;96.23;98311.34;5011656;28;20038;-78
2023/12/09 07:45:51;;;;;;;0.90;0.90;;;;;;;5.24;96.01;98303.53;5016820;28;20087;-78
2023/12/09 07:48:17;;;;;;;0.80;0.80;;;;;;;5.20;95.74;98305.16;5011394;28;20769;-78
2023/12/09 07:50:42;;;;;;;0.80;0.80;;;;;;;5.31;95.70;98295.91;5011522;28;20052;-78
2023/12/09 07:53:08;;;;;;;0.80;0.80;;;;;;;5.34;95.55;98296.06;5012511;28;21193;-78
2023/12/09 07:55:33;;;;;;;0.73;0.73;;;;;;;5.42;95.43;98298.13;5012757;28;20142;-77
2023/12/09 07:57:59;;;;;;;0.80;0.80;;;;;;;5.56;95.40;98303.16;5012319;28;20128;-77
2023/12/09 08:00:27;;;;;;;0.80;0.80;;;;;;;5.60;94.45;98302.44;5012856;28;20120;-77
2023/12/09 08:02:54;;;;;;;0.80;0.80;;;;;;;5.54;93.59;98296.00;5011579;28;20037;-76
2023/12/09 08:05:21;;;;;;;0.90;0.90;;;;;;;5.49;94.07;98289.59;5010728;28;20041;-76
2023/12/09 08:07:46;;;;;;;0.90;0.90;;;;;;;5.43;94.48;98287.63;5015876;28;20088;-76
2023/12/09 08:10:12;;;;;;;0.80;0.80;;;;;;;5.46;94.48;98281.53;5014903;28;20046;-77
2023/12/09 08:12:37;;;;;;;0.80;0.80;;;;;;;5.52;94.76;98282.72;5009212;28;20045;-79
2023/12/09 08:15:03;;;;;;;0.80;0.80;;;;;;;5.55;94.52;98276.63;5013559;28;20192;-77
2023/12/09 08:17:29;;;;;;;0.90;0.90;;;;;;;5.60;92.04;98272.41;5019321;28;20140;-78
2023/12/09 08:19:54;;;;;;;0.88;0.88;;;;;;;5.62;92.49;98260.19;5028519;28;20215;-75
2023/12/09 08:22:19;;;;;;;0.80;0.80;;;;;;;5.78;91.67;98257.28;5013036;28;20510;-76
2023/12/09 08:24:45;;;;;;;0.80;0.80;;;;;;;5.74;91.11;98262.41;5013553;28;20037;-76
2023/12/09 08:27:10;;;;;;;0.80;0.80;;;;;;;5.84;90.71;98265.47;5011267;28;20061;-77
2023/12/09 08:29:36;;;;;;;0.80;0.80;;;;;;;5.87;90.89;98259.41;5013433;28;20074;-77
2023/12/09 08:32:01;;;;;;;0.80;0.80;;;;;;;5.94;90.87;98250.91;5016645;28;20025;-77
2023/12/09 08:34:26;;;;;;;0.80;0.80;;;;;;;5.88;90.64;98248.88;5015322;28;20134;-77
2023/12/09 08:36:52;;;;;;;0.80;0.80;;;;;;;6.04;90.46;98246.88;5018343;28;20143;-77
2023/12/09 08:39:17;;;;;;;0.80;0.80;;;;;;;5.85;91.39;98250.53;5015408;28;20036;-77
2023/12/09 08:41:44;;;;;;;0.80;0.80;;;;;;;5.99;91.23;98251.06;5015954;28;20033;-77
2023/12/09 08:44:09;;;;;;;0.80;0.80;;;;;;;6.07;91.08;98242.59;5015108;28;20058;-77
2023/12/09 08:46:35;;;;;;;0.80;0.80;;;;;;;6.05;91.21;98240.75;5015166;28;20456;-77
2023/12/09 08:49:00;;;;;;;0.75;0.75;;;;;;;6.16;91.02;98239.41;5010629;28;20046;-77
2023/12/09 08:51:26;;;;;;;0.80;0.80;;;;;;;6.40;90.18;98242.06;5008722;28;20084;-78
2023/12/09 08:53:51;;;;;;;0.80;0.80;;;;;;;6.52;89.77;98245.19;5010395;28;20042;-78
2023/12/09 08:56:17;;;;;;;0.80;0.80;;;;;;;6.54;89.92;98251.44;5007704;28;20129;-77
2023/12/09 08:58:42;;;;;;;0.77;0.77;;;;;;;6.43;89.26;98252.78;5011620;28;20149;-77
2023/12/09 09:01:08;;;;;;;0.80;0.80;;;;;;;6.47;87.57;98259.09;5009944;28;20110;-77
2023/12/09 09:03:33;;;;;;;0.90;0.90;;;;;;;6.67;87.36;98253.69;5010650;28;20109;-77
2023/12/09 09:05:59;;;;;;;0.80;0.80;;;;;;;6.72;85.52;98240.63;5009165;28;20091;-77
2023/12/09 09:08:24;;;;;;;0.70;0.70;;;;;;;6.78;85.77;98232.88;5010111;28;20621;-77
2023/12/09 09:10:50;;;;;;;0.60;0.60;;;;;;;6.74;85.02;98230.94;5013524;28;20044;-77
2023/12/09 09:13:15;;;;;;;0.80;0.80;;;;;;;6.49;86.23;98241.50;5012604;28;20481;-78
2023/12/09 09:15:42;;;;;;;0.70;0.70;;;;;;;6.65;85.35;98238.56;5031133;28;21001;-77
2023/12/09 09:18:07;;;;;;;0.80;0.80;;;;;;;6.66;85.89;98225.41;5010312;28;20188;-78
2023/12/09 09:20:33;;;;;;;0.70;0.70;;;;;;;6.62;84.95;98230.53;5011871;28;20443;-77
2023/12/09 09:22:58;;;;;;;0.70;0.70;;;;;;;6.61;84.32;98226.97;5014482;28;20068;-77
2023/12/09 09:25:25;;;;;;;0.80;0.80;;;;;;;6.56;84.62;98220.56;5013268;28;20479;-77
2023/12/09 09:27:51;;;;;;;0.80;0.80;;;;;;;6.72;83.99;98206.16;5015386;28;20053;-77
2023/12/09 09:30:19;;;;;;;0.80;0.80;;;;;;;6.87;83.30;98212.00;5014009;28;20534;-77
2023/12/09 09:32:46;;;;;;;0.80;0.80;;;;;;;7.05;82.37;98208.19;5012192;28;20040;-77
2023/12/09 09:35:11;;;;;;;0.80;0.80;;;;;;;6.88;82.39;98216.44;5012291;28;20685;-79
2023/12/09 09:37:36;;;;;;;0.80;0.80;;;;;;;7.05;82.67;98214.38;5011351;28;20148;-78
2023/12/09 09:40:04;;;;;;;0.73;0.73;;;;;;;7.02;81.89;98198.34;5018013;28;20042;-78
2023/12/09 09:42:51;;;;;;;0.80;0.80;;;;;;;6.85;81.42;98203.09;5017022;28;20061;-78
2023/12/09 09:45:24;;;;;;;0.80;0.80;;;;;;;7.25;79.83;98196.50;5001474;28;20041;-80
2023/12/09 09:47:52;;;;;;;0.80;0.80;;;;;;;6.91;81.46;98194.44;5009892;28;20038;-77
2023/12/09 09:50:21;;;;;;;;;;;;;;;6.61;80.97;98194.25;5011185;28;20099;-77
2023/12/09 09:52:48;;;;;;;0.77;0.77;;;;;;;6.83;80.30;98186.22;5010428;28;20039;-77
2023/12/09 09:55:17;;;;;;;0.80;0.80;;;;;;;6.67;81.60;98195.38;5020764;28;20037;-78
2023/12/09 09:57:43;;;;;;;0.80;0.80;;;;;;;6.63;80.91;98192.56;5004377;28;20133;-78
2023/12/09 10:00:14;;;;;;;0.80;0.80;;;;;;;6.58;81.87;98173.84;5007440;28;20045;-77
2023/12/09 10:02:47;;;;;;;0.90;0.90;;;;;;;6.65;82.14;98180.25;5011644;28;20272;-77
2023/12/09 10:05:20;;;;;;;0.90;0.90;;;;;;;6.58;80.78;98173.84;5006681;28;20080;-77
2023/12/09 10:07:46;;;;;;;0.90;0.90;;;;;;;6.76;81.06;98164.75;5010050;28;20791;-77
2023/12/09 10:10:13;;;;;;;0.80;0.80;;;;;;;6.90;80.88;98153.78;5008554;28;20045;-77
2023/12/09 10:12:39;;;;;;;0.80;0.80;;;;;;;7.21;79.79;98149.47;5014919;28;20053;-77
2023/12/09 10:15:06;;;;;;;0.90;0.90;;;;;;;6.87;81.31;98139.50;5008817;28;20532;-77
2023/12/09 10:17:32;;;;;;;0.90;0.90;;;;;;;6.62;82.24;98141.31;5015551;28;20367;-77
2023/12/09 10:19:58;;;;;;;0.80;0.80;;;;;;;6.77;80.77;98140.03;5012274;28;20377;-76
2023/12/09 10:22:25;;;;;;;0.80;0.80;;;;;;;6.70;81.46;98130.94;5027634;28;20820;-76
2023/12/09 10:24:57;;;;;;;0.90;0.90;;;;;;;6.80;81.23;98135.72;5010308;28;20585;-77
2023/12/09 10:27:26;;;;;;;0.80;0.80;;;;;;;6.91;81.81;98146.72;4998692;28;20120;-77
2023/12/09 10:29:56;;;;;;;0.80;0.80;;;;;;;6.84;80.11;98140.28;5013520;28;20063;-77
2023/12/09 10:32:22;;;;;;;0.88;0.88;;;;;;;6.81;80.60;98132.25;5016991;28;20790;-77
2023/12/09 10:34:48;;;;;;;0.70;0.70;;;;;;;6.93;80.73;98134.41;5017336;28;20033;-77
2023/12/09 10:37:15;;;;;;;0.70;0.70;;;;;;;6.90;80.25;98114.00;5013180;28;20061;-76
2023/12/09 10:39:49;;;;;;;0.77;0.77;;;;;;;6.65;80.96;98100.75;5010559;28;20042;-77
2023/12/09 10:42:14;;;;;;;0.80;0.80;;;;;;;6.80;80.57;98103.00;5010496;28;20041;-77
2023/12/09 10:44:41;;;;;;;0.80;0.80;;;;;;;6.69;81.70;98100.91;5010017;28;20034;-77
2023/12/09 10:47:07;;;;;;;0.73;0.73;;;;;;;6.82;80.23;98091.63;5012564;28;20061;-77
2023/12/09 10:49:33;;;;;;;0.70;0.70;;;;;;;6.80;81.48;98073.84;5025561;28;20121;-77
2023/12/09 10:51:59;;;;;;;0.70;0.70;;;;;;;6.91;81.18;98083.97;5010585;28;20042;-77
2023/12/09 10:54:25;;;;;;;0.80;0.80;;;;;;;7.02;80.81;98086.06;5010655;28;20053;-77
2023/12/09 10:56:51;;;;;;;0.70;0.70;;;;;;;7.35;79.82;98071.22;5022494;28;20845;-77
2023/12/09 10:59:20;;;;;;;0.70;0.70;;;;;;;7.48;79.60;98067.19;5011284;28;20160;-77
2023/12/09 11:01:46;;;;;;;0.60;0.60;;;;;;;7.68;78.22;98059.84;5008120;28;20037;-77
2023/12/09 11:04:15;;;;;;;0.70;0.70;;;;;;;7.68;78.55;98057.19;5012247;28;20152;-77
2023/12/09 11:06:44;;;;;;;0.80;0.80;;;;;;;8.08;77.66;98047.69;5013396;28;20049;-78
2023/12/09 11:09:13;;;;;;;0.80;0.80;;;;;;;8.20;77.42;98046.28;5009742;28;20050;-78
2023/12/09 11:11:41;;;;;;;0.70;0.70;;;;;;;8.24;76.62;98052.59;5008949;28;20037;-77
2023/12/09 11:14:09;;;;;;;0.60;0.60;;;;;;;8.08;77.09;98051.25;5008357;28;20495;-77
2023/12/09 11:16:39;;;;;;;0.60;0.60;;;;;;;9.04;73.11;98038.69;5012671;28;20034;-77
2023/12/09 11:19:08;;;;;;;0.70;0.70;;;;;;;8.13;74.86;98024.78;5007791;28;20038;-77
2023/12/09 11:21:34;;;;;;;0.70;0.70;;;;;;;7.48;77.23;98021.19;5019801;28;20072;-78
2023/12/09 11:24:00;;;;;;;0.80;0.80;;;;;;;7.56;78.07;98003.72;5005539;28;20141;-77
2023/12/09 11:26:33;;;;;;;0.70;0.70;;;;;;;7.67;79.17;97991.66;5007272;28;20482;-77
2023/12/09 11:29:05;;;;;;;0.70;0.70;;;;;;;7.48;78.54;97969.00;5007832;28;20049;-77
2023/12/09 11:31:36;;;;;;;0.70;0.70;;;;;;;7.85;77.44;97956.72;5020756;28;20064;-78
2023/12/09 11:34:04;;;;;;;0.80;0.80;;;;;;;8.43;75.19;97948.59;5007642;28;20037;-77
2023/12/09 11:36:30;;;;;;;0.90;0.90;;;;;;;8.00;76.75;97940.31;5022230;28;20041;-77
2023/12/09 11:38:57;;;;;;;0.70;0.70;;;;;;;8.25;75.65;97929.47;5011567;28;20041;-78